Time;durP1;ratioP1;P1;durP2;ratioP2;P2;SDS_P1;SDS_P2;PMS_P1;PMS_P2;Temp;Humidity;BMP_temperature;BMP_pressure;BME280_temperature;BME280_humidity;BME280_pressure;Samples;Min_cycle;Max_cycle;Signal;HPM_P1;HPM_P2
2022/03/05 18:29:02;;;;;;;25.27;12.98;;;;;;;2.67;52.63;99905.32;1870979;76;22230;-40
2022/03/05 18:31:28;;;;;;;21.00;11.73;;;;;;;2.61;52.23;99901.52;1841440;77;20997;-40
2022/03/05 18:33:54;;;;;;;29.20;13.60;;;;;;;2.43;50.91;99909.10;1831081;77;20994;-41
2022/03/05 18:36:20;;;;;;;44.73;21.50;;;;;;;2.38;51.71;99906.55;1828909;78;20982;-40
2022/03/05 18:38:45;;;;;;;66.85;32.70;;;;;;;2.34;51.69;99904.88;1828881;78;21486;-40
2022/03/05 18:41:11;;;;;;;48.00;24.18;;;;;;;2.25;51.55;99905.83;1828777;78;21673;-40
2022/03/05 18:43:38;;;;;;;49.03;23.90;;;;;;;2.17;51.54;99916.75;1828801;78;20955;-40
2022/03/05 18:46:05;;;;;;;35.53;17.07;;;;;;;2.12;51.11;99914.64;1829030;78;20993;-41
2022/03/05 18:48:32;;;;;;;38.42;15.85;;;;;;;2.09;51.60;99915.95;1828715;78;21005;-40
2022/03/05 18:50:59;;;;;;;31.20;14.70;;;;;;;1.91;51.41;99914.00;1828955;78;21032;-40
2022/03/05 18:53:25;;;;;;;34.30;13.35;;;;;;;1.87;51.74;99915.33;1828960;78;20975;-40
2022/03/05 18:55:53;;;;;;;24.65;11.95;;;;;;;1.85;51.66;99914.04;1828756;78;21032;-41
2022/03/05 18:58:19;;;;;;;;;;;;;;;1.83;50.88;99909.75;1831467;78;20978;-40
2022/03/05 19:00:46;;;;;;;30.45;14.38;;;;;;;1.77;50.52;99913.27;1828871;78;20097;-41
2022/03/05 19:03:11;;;;;;;25.85;12.45;;;;;;;1.80;50.97;99914.55;1828840;78;21425;-40
2022/03/05 19:05:38;;;;;;;33.55;17.25;;;;;;;1.78;50.29;99912.38;1828810;78;21365;-39
2022/03/05 19:08:04;;;;;;;36.90;16.95;;;;;;;1.74;50.69;99911.99;1828780;78;20994;-40
2022/03/05 19:10:30;;;;;;;34.90;14.55;;;;;;;1.73;50.21;99917.63;1828718;78;20987;-43
2022/03/05 19:12:56;;;;;;;25.92;11.60;;;;;;;1.72;50.24;99923.67;1862136;77;21420;-40
2022/03/05 19:15:22;;;;;;;30.97;13.53;;;;;;;1.70;50.47;99921.98;1862451;77;20981;-39
2022/03/05 19:17:48;;;;;;;51.45;19.90;;;;;;;1.72;50.97;99919.78;1862451;77;21401;-41
2022/03/05 19:20:16;;;;;;;38.05;15.40;;;;;;;1.73;50.95;99922.81;1862449;77;20970;-40
2022/03/05 19:22:42;;;;;;;33.50;14.50;;;;;;;1.67;50.59;99929.77;1831626;77;20981;-40
2022/03/05 19:25:11;;;;;;;26.65;13.00;;;;;;;1.68;50.98;99929.77;1862721;77;20951;-40
2022/03/05 19:27:38;;;;;;;34.25;13.50;;;;;;;1.74;51.07;99930.14;1863252;77;21488;-40
2022/03/05 19:30:08;;;;;;;33.35;13.95;;;;;;;1.68;50.98;99928.91;1864890;77;21346;-40
2022/03/05 19:32:37;;;;;;;28.05;13.45;;;;;;;1.70;51.20;99931.05;1865031;77;20986;-41
2022/03/05 19:35:04;;;;;;;25.65;11.63;;;;;;;1.67;51.01;99928.48;1864683;77;20954;-41
2022/03/05 19:37:30;;;;;;;35.40;14.98;;;;;;;1.61;50.40;99938.91;1864763;77;21013;-40
2022/03/05 19:39:56;;;;;;;58.42;22.82;;;;;;;1.62;51.04;99929.83;1864917;77;20989;-40
2022/03/05 19:42:22;;;;;;;74.53;24.80;;;;;;;1.64;51.03;99935.01;1864717;77;20982;-41
2022/03/05 19:44:47;;;;;;;45.80;15.60;;;;;;;1.58;50.46;99929.86;1864788;77;20970;-40
2022/03/05 19:47:13;;;;;;;46.37;17.48;;;;;;;1.59;50.26;99936.33;1824916;78;20998;-41
2022/03/05 19:49:39;;;;;;;51.58;17.67;;;;;;;1.62;50.76;99935.42;1824855;78;20962;-41
2022/03/05 19:52:06;;;;;;;40.50;15.25;;;;;;;1.56;50.41;99936.79;1825059;78;20967;-40
2022/03/05 19:54:32;;;;;;;32.42;14.65;;;;;;;1.55;50.68;99937.23;1825059;78;20986;-40
2022/03/05 19:56:58;;;;;;;26.12;12.35;;;;;;;1.56;50.12;99939.37;1824920;78;20959;-40
2022/03/05 19:59:24;;;;;;;22.82;10.55;;;;;;;1.53;50.34;99939.83;1824906;78;20974;-40
2022/03/05 20:01:50;;;;;;;28.15;10.10;;;;;;;1.54;50.21;99941.53;1825059;78;20955;-40
2022/03/05 20:04:17;;;;;;;24.18;9.70;;;;;;;1.54;50.06;99936.80;1824978;78;20975;-40
2022/03/05 20:06:43;;;;;;;28.95;11.40;;;;;;;1.56;50.20;99936.79;1804867;79;21503;-41
2022/03/05 20:09:09;;;;;;;20.72;9.98;;;;;;;1.55;50.02;99935.94;1804657;79;21006;-40
2022/03/05 20:11:35;;;;;;;23.30;9.95;;;;;;;1.57;49.98;99932.04;1804704;79;20970;-41
2022/03/05 20:14:01;;;;;;;30.43;12.60;;;;;;;1.53;50.25;99936.39;1804758;79;21498;-41
2022/03/05 20:16:27;;;;;;;31.68;12.80;;;;;;;1.50;50.35;99935.95;1804592;79;21010;-40
2022/03/05 20:18:53;;;;;;;28.85;14.25;;;;;;;1.50;50.20;99935.95;1804597;79;21002;-40
2022/03/05 20:21:19;;;;;;;33.63;12.82;;;;;;;1.53;50.43;99935.09;1804619;79;20962;-40
2022/03/05 20:23:44;;;;;;;29.07;14.05;;;;;;;1.52;49.69;99930.77;1804641;79;21006;-40
2022/03/05 20:26:10;;;;;;;22.15;11.20;;;;;;;1.53;49.81;99934.65;1804685;79;21029;-40
2022/03/05 20:28:36;;;;;;;42.88;13.10;;;;;;;1.62;49.84;99932.83;1795486;79;21019;-41
2022/03/05 20:31:03;;;;;;;35.15;15.20;;;;;;;1.52;49.85;99930.77;1833905;78;20975;-41
2022/03/05 20:33:29;;;;;;;30.37;14.73;;;;;;;1.51;50.23;99931.21;1845318;78;21006;-40
2022/03/05 20:35:55;;;;;;;23.47;11.80;;;;;;;1.49;50.19;99930.38;1794853;80;21468;-40
2022/03/05 20:38:22;;;;;;;20.17;10.28;;;;;;;1.50;49.72;99929.48;1794797;79;21861;-40
2022/03/05 20:40:49;;;;;;;18.98;9.95;;;;;;;1.49;49.22;99935.55;1794842;79;20998;-40
2022/03/05 20:43:17;;;;;;;23.73;12.35;;;;;;;1.52;49.79;99928.17;1794710;79;21026;-40
2022/03/05 20:45:43;;;;;;;;;;;;;;;1.49;49.05;99929.07;1797506;80;20975;-41
2022/03/05 20:48:09;;;;;;;22.37;10.88;;;;;;;1.48;48.78;99929.93;1794813;79;20123;-40
2022/03/05 20:50:37;;;;;;;22.17;9.53;;;;;;;1.39;47.80;99925.27;1794776;80;20967;-41
2022/03/05 20:53:04;;;;;;;;;;;;;;;1.44;49.21;99928.25;1797480;80;21455;-40
2022/03/05 20:55:30;;;;;;;;;;;;;;;1.40;48.54;99930.44;1797499;80;20507;-40
2022/03/05 20:57:55;;;;;;;24.10;11.57;;;;;;;1.36;49.06;99930.02;1794798;79;20104;-40
2022/03/05 21:00:22;;;;;;;25.10;12.95;;;;;;;1.38;49.17;99933.90;1794960;80;21476;-40
2022/03/05 21:02:49;;;;;;;27.15;13.08;;;;;;;1.37;49.44;99938.23;1794950;80;21111;-41
2022/03/05 21:05:15;;;;;;;27.67;13.55;;;;;;;1.33;49.47;99940.43;1795068;79;20994;-41
2022/03/05 21:07:41;;;;;;;27.52;12.10;;;;;;;1.28;49.42;99937.86;1794764;79;21037;-40
2022/03/05 21:10:08;;;;;;;24.07;10.63;;;;;;;1.35;49.62;99941.28;1794854;80;21091;-41
2022/03/05 21:12:35;;;;;;;22.42;10.10;;;;;;;1.37;49.38;99943.42;1794957;79;20975;-40
2022/03/05 21:15:03;;;;;;;20.88;10.35;;;;;;;1.39;48.97;99939.52;1794897;80;21034;-41
2022/03/05 21:17:29;;;;;;;22.67;10.43;;;;;;;1.41;49.18;99941.22;1794737;79;21567;-41
2022/03/05 21:19:55;;;;;;;27.42;13.75;;;;;;;1.36;48.45;99941.68;1794753;79;21555;-41
2022/03/05 21:22:21;;;;;;;18.80;8.60;;;;;;;1.32;48.74;99940.84;1794742;79;20987;-40
2022/03/05 21:24:47;;;;;;;20.77;9.43;;;;;;;1.31;49.24;99943.02;1794839;79;21460;-40
2022/03/05 21:27:12;;;;;;;20.68;9.65;;;;;;;1.34;48.96;99944.72;1794828;79;20999;-41
2022/03/05 21:29:38;;;;;;;22.20;9.58;;;;;;;1.27;48.60;99948.23;1806945;79;21064;-40
2022/03/05 21:32:06;;;;;;;25.12;12.13;;;;;;;1.32;49.20;99939.98;1807988;79;20982;-40
2022/03/05 21:34:31;;;;;;;27.67;12.65;;;;;;;1.31;48.50;99949.92;1808130;79;21494;-40
2022/03/05 21:36:57;;;;;;;24.45;12.37;;;;;;;1.32;48.10;99946.47;1807252;79;21017;-41
2022/03/05 21:39:23;;;;;;;20.30;10.50;;;;;;;1.33;48.50;99941.73;1807052;79;21037;-40
2022/03/05 21:41:49;;;;;;;22.13;10.13;;;;;;;1.34;48.40;99942.13;1807967;79;20979;-41
2022/03/05 21:44:15;;;;;;;21.73;9.88;;;;;;;1.37;48.79;99940.83;1807964;79;20986;-41
2022/03/05 21:46:41;;;;;;;19.85;10.23;;;;;;;1.39;48.97;99945.55;1808010;79;20955;-41
2022/03/05 21:49:08;;;;;;;18.35;9.78;;;;;;;1.40;48.35;99944.70;1807677;79;21026;-41
2022/03/05 21:51:34;;;;;;;25.02;10.28;;;;;;;1.43;48.46;99943.36;1806759;79;21009;-39
2022/03/05 21:54:00;;;;;;;21.35;10.30;;;;;;;1.45;48.56;99945.50;1808238;79;21048;-40
2022/03/05 21:56:25;;;;;;;26.30;11.57;;;;;;;1.44;49.07;99950.27;1807916;79;20989;-40
2022/03/05 21:58:51;;;;;;;17.62;9.58;;;;;;;1.45;49.11;99951.98;1808051;79;20990;-40
2022/03/05 22:01:20;;;;;;;21.48;10.00;;;;;;;1.49;48.84;99949.81;1807998;79;20966;-40
2022/03/05 22:03:47;;;;;;;18.40;9.00;;;;;;;1.51;48.65;99952.36;1807620;79;21029;-40
2022/03/05 22:06:13;;;;;;;16.30;7.62;;;;;;;1.45;48.46;99953.27;1808132;79;21466;-40
2022/03/05 22:08:39;;;;;;;22.20;9.03;;;;;;;1.40;48.26;99948.59;1808250;79;21025;-40
2022/03/05 22:11:05;;;;;;;26.80;9.28;;;;;;;1.39;48.53;99952.48;1807959;79;20978;-40
2022/03/05 22:13:32;;;;;;;18.50;8.60;;;;;;;1.39;48.94;99945.55;1807949;79;21021;-40
2022/03/05 22:15:57;;;;;;;16.35;8.05;;;;;;;1.34;48.88;99946.87;1807933;79;20986;-40
2022/03/05 22:18:23;;;;;;;18.35;8.33;;;;;;;1.34;48.55;99945.58;1807972;79;20954;-40
2022/03/05 22:20:49;;;;;;;12.30;7.15;;;;;;;1.33;48.99;99945.61;1807580;79;20963;-40
2022/03/05 22:23:15;;;;;;;14.23;8.05;;;;;;;1.34;48.63;99938.24;1807317;79;21467;-40
2022/03/05 22:25:41;;;;;;;20.70;9.73;;;;;;;1.30;48.13;99933.96;1807451;79;21482;-40
2022/03/05 22:28:07;;;;;;;19.73;9.05;;;;;;;1.33;48.54;99935.25;1805244;79;21053;-40
2022/03/05 22:30:34;;;;;;;24.00;9.93;;;;;;;1.35;47.99;99938.69;1798147;80;21017;-40
2022/03/05 22:33:00;;;;;;;23.92;9.45;;;;;;;1.39;48.97;99933.89;1797825;80;20963;-40
2022/03/05 22:35:30;;;;;;;21.95;10.10;;;;;;;1.39;48.76;99939.52;1798011;80;21514;-41
2022/03/05 22:37:53;;;;;;;18.52;9.15;;;;;;;1.40;48.59;99939.92;1797180;80;21061;-40
2022/03/05 22:40:19;;;;;;;18.85;9.83;;;;;;;1.38;48.67;99941.23;1798028;80;21472;-40
2022/03/05 22:42:45;;;;;;;18.60;9.65;;;;;;;1.36;48.81;99939.09;1798059;80;21522;-40
2022/03/05 22:45:11;;;;;;;21.07;11.08;;;;;;;1.26;48.64;99937.45;1797873;80;20971;-41
2022/03/05 22:47:37;;;;;;;18.98;9.65;;;;;;;1.28;48.77;99935.71;1797910;80;21444;-40
2022/03/05 22:50:04;;;;;;;21.42;10.48;;;;;;;1.25;48.35;99935.28;1798094;79;20998;-40
2022/03/05 22:52:30;;;;;;;23.05;11.15;;;;;;;1.32;48.95;99933.52;1798591;79;21033;-40
2022/03/05 22:54:56;;;;;;;21.27;9.65;;;;;;;1.32;48.86;99933.52;1798654;80;21041;-40
2022/03/05 22:57:21;;;;;;;28.20;9.68;;;;;;;1.27;48.69;99931.39;1798610;80;21045;-40
2022/03/05 22:59:47;;;;;;;20.27;9.88;;;;;;;1.32;48.93;99930.48;1798664;80;21133;-40
2022/03/05 23:04:57;;;;;;;24.25;11.20;;;;;;;1.29;48.48;99934.41;1798807;80;20958;-40
2022/03/05 23:10:08;;;;;;;21.20;10.63;;;;;;;1.27;48.69;99928.80;1797348;80;22232;-41
2022/03/05 23:12:34;;;;;;;25.48;10.35;;;;;;;1.27;48.69;99923.61;1797700;80;21081;-39
2022/03/05 23:14:59;;;;;;;28.52;12.15;;;;;;;1.24;48.72;99923.66;1797758;79;21046;-41
2022/03/05 23:17:25;;;;;;;18.95;10.28;;;;;;;1.28;48.85;99926.20;1798788;80;21499;-41
2022/03/05 23:19:51;;;;;;;22.48;10.95;;;;;;;1.29;48.58;99924.05;1798872;80;21459;-41
2022/03/05 23:22:17;;;;;;;23.10;9.88;;;;;;;1.26;48.79;99929.69;1798799;80;20987;-39
2022/03/05 23:24:42;;;;;;;17.98;9.93;;;;;;;1.27;48.33;99922.31;1798867;80;21554;-39
2022/03/05 23:27:08;;;;;;;19.77;10.18;;;;;;;1.29;48.59;99930.94;1798781;80;20974;-40
2022/03/05 23:29:34;;;;;;;30.57;12.47;;;;;;;1.28;48.90;99929.23;1798638;80;21029;-41
2022/03/05 23:32:00;;;;;;;23.05;11.38;;;;;;;1.27;48.89;99924.91;1798791;80;21022;-40
2022/03/05 23:34:26;;;;;;;23.30;10.70;;;;;;;1.26;48.61;99921.91;1798895;80;20987;-40
2022/03/05 23:36:52;;;;;;;23.22;11.50;;;;;;;1.30;48.28;99918.42;1798746;80;20987;-39
2022/03/05 23:39:18;;;;;;;23.22;10.40;;;;;;;1.29;48.32;99920.57;1798800;80;20990;-39
2022/03/05 23:41:44;;;;;;;23.73;10.43;;;;;;;1.22;48.59;99915.01;1798841;80;21029;-39
2022/03/05 23:44:11;;;;;;;22.20;9.95;;;;;;;1.20;48.79;99918.05;1798731;80;20979;-39
2022/03/05 23:46:38;;;;;;;21.93;11.10;;;;;;;1.16;48.74;99914.62;1798922;80;20978;-39
2022/03/05 23:49:05;;;;;;;24.45;11.73;;;;;;;1.08;48.76;99914.67;1799015;80;20986;-39
2022/03/05 23:51:33;;;;;;;;;;;;;;;1.09;49.04;99919.00;1801476;79;21447;-41
2022/03/05 23:54:00;;;;;;;24.77;11.65;;;;;;;1.07;48.07;99922.01;1798378;80;20111;-41
2022/03/05 23:56:26;;;;;;;25.45;12.95;;;;;;;1.09;48.79;99922.89;1798747;80;20959;-40
2022/03/05 23:58:51;;;;;;;25.60;12.47;;;;;;;1.16;49.28;99923.69;1798750;80;21118;-40
